Time;durP1;ratioP1;P1;durP2;ratioP2;P2;SDS_P1;SDS_P2;PMS_P1;PMS_P2;Temp;Humidity;BMP_temperature;BMP_pressure;BME280_temperature;BME280_humidity;BME280_pressure;Samples;Min_cycle;Max_cycle;Signal;HPM_P1;HPM_P2
2022/03/20 00:00:53;;;;;;;11.43;6.15;;;4.30;99.90;;;;;;5013504;28;20389;-94
2022/03/20 00:03:21;;;;;;;10.00;5.63;;;4.30;99.90;;;;;;5016996;28;20136;-95
2022/03/20 00:05:48;;;;;;;11.35;5.80;;;4.20;99.90;;;;;;5002955;28;20057;-94
2022/03/20 00:08:16;;;;;;;12.10;5.50;;;4.20;99.90;;;;;;5000023;28;20046;-94
2022/03/20 00:10:45;;;;;;;12.75;5.45;;;4.30;99.90;;;;;;5001565;28;20091;-94
2022/03/20 00:13:39;;;;;;;12.63;6.35;;;4.20;99.90;;;;;;5017188;28;20401;-94
2022/03/20 00:16:14;;;;;;;11.32;5.88;;;4.30;99.90;;;;;;5000300;28;20065;-96
2022/03/20 00:18:40;;;;;;;8.65;5.60;;;4.70;99.90;;;;;;5017444;28;20046;-94
2022/03/20 00:21:09;;;;;;;13.73;5.80;;;5.20;99.90;;;;;;5000919;28;20091;-93
2022/03/20 00:23:35;;;;;;;12.25;6.20;;;5.30;99.90;;;;;;5000724;28;20057;-95
2022/03/20 00:26:01;;;;;;;10.48;6.18;;;4.20;99.90;;;;;;5001673;28;20046;-95
2022/03/20 00:28:26;;;;;;;17.20;6.78;;;4.30;99.90;;;;;;5017665;28;20049;-94
2022/03/20 00:30:54;;;;;;;12.23;5.85;;;4.20;99.90;;;;;;5000797;28;20045;-93
2022/03/20 00:33:21;;;;;;;11.05;5.70;;;4.20;99.90;;;;;;5016949;28;20053;-93
2022/03/20 00:35:46;;;;;;;13.82;6.05;;;4.10;99.90;;;;;;5016776;28;20037;-94
2022/03/20 00:38:12;;;;;;;13.43;6.25;;;4.10;99.90;;;;;;5006355;28;20405;-92
2022/03/20 00:40:38;;;;;;;12.75;6.30;;;4.10;99.90;;;;;;5010772;28;20129;-93
2022/03/20 00:43:05;;;;;;;11.45;6.10;;;4.00;99.90;;;;;;5033227;28;20392;-94
2022/03/20 00:45:31;;;;;;;13.85;6.57;;;4.00;99.90;;;;;;5027151;28;20041;-92
2022/03/20 00:47:57;;;;;;;14.25;6.28;;;4.00;99.90;;;;;;5016359;28;20033;-96
2022/03/20 00:50:23;;;;;;;14.65;6.07;;;4.00;99.90;;;;;;5033114;28;20136;-94
2022/03/20 00:52:48;;;;;;;12.32;5.88;;;3.90;99.90;;;;;;5016499;28;20044;-94
2022/03/20 00:55:14;;;;;;;11.95;6.25;;;3.90;99.90;;;;;;5017730;28;20037;-94
2022/03/20 00:57:40;;;;;;;16.75;6.55;;;3.90;99.90;;;;;;5011390;28;20053;-96
2022/03/20 01:00:07;;;;;;;15.07;6.10;;;3.90;99.90;;;;;;5016791;28;20562;-96
2022/03/20 01:02:39;;;;;;;14.95;6.68;;;3.90;99.90;;;;;;5010859;28;20105;-96
2022/03/20 01:05:09;;;;;;;13.45;6.00;;;3.80;99.90;;;;;;5016208;28;20054;-93
2022/03/20 01:07:37;;;;;;;14.13;6.22;;;3.80;99.90;;;;;;5026468;28;20416;-95
2022/03/20 01:10:04;;;;;;;12.93;6.38;;;3.80;99.90;;;;;;5032342;28;20048;-91
2022/03/20 01:12:33;;;;;;;13.27;7.03;;;3.80;99.90;;;;;;5013000;28;20073;-95
2022/03/20 01:14:59;;;;;;;13.38;6.90;;;3.80;99.90;;;;;;5019188;28;20045;-95
2022/03/20 01:17:25;;;;;;;16.38;6.47;;;4.10;99.90;;;;;;5011241;28;20058;-96
2022/03/20 01:19:51;;;;;;;15.15;6.40;;;3.80;99.90;;;;;;5017103;28;20045;-96
2022/03/20 01:22:17;;;;;;;15.05;6.65;;;3.70;99.90;;;;;;5033209;28;20504;-95
2022/03/20 01:24:42;;;;;;;17.38;6.60;;;3.70;99.90;;;;;;5027878;28;20502;-95
2022/03/20 01:27:09;;;;;;;14.45;7.20;;;3.60;99.90;;;;;;5012386;28;20128;-96
2022/03/20 01:29:35;;;;;;;13.20;7.15;;;3.60;99.90;;;;;;5017095;28;20068;-96
2022/03/20 01:32:01;;;;;;;11.80;6.75;;;3.60;99.90;;;;;;5016659;28;20172;-91
2022/03/20 01:34:27;;;;;;;19.83;7.35;;;4.40;99.90;;;;;;4999985;28;20049;-95
2022/03/20 01:36:53;;;;;;;15.25;7.05;;;3.50;99.90;;;;;;5016847;28;20045;-95
2022/03/20 01:39:19;;;;;;;15.05;7.07;;;3.50;99.90;;;;;;5007383;28;20037;-94
2022/03/20 01:41:47;;;;;;;17.45;6.95;;;3.50;99.90;;;;;;5027171;28;20045;-96
2022/03/20 01:44:13;;;;;;;12.70;7.47;;;3.50;99.90;;;;;;5005111;28;20073;-94
2022/03/20 01:46:39;;;;;;;20.05;7.68;;;3.40;99.90;;;;;;4999694;28;20037;-94
2022/03/20 01:49:05;;;;;;;12.93;6.80;;;3.40;99.90;;;;;;4999019;28;20045;-93
2022/03/20 01:54:15;;;;;;;15.02;6.95;;;3.40;99.90;;;;;;5015435;28;20511;-94
2022/03/20 01:56:46;;;;;;;13.52;7.55;;;3.40;99.90;;;;;;4999537;28;20041;-94
2022/03/20 01:59:13;;;;;;;13.45;7.80;;;3.40;99.90;;;;;;4998855;28;20057;-94
2022/03/20 02:01:39;;;;;;;18.40;7.40;;;3.30;99.90;;;;;;5016120;28;20401;-94
2022/03/20 02:04:05;;;;;;;13.75;7.25;;;3.30;99.90;;;;;;4999186;28;20042;-93
2022/03/20 02:06:30;;;;;;;18.85;8.60;;;3.30;99.90;;;;;;4999446;28;20065;-93
2022/03/20 02:08:56;;;;;;;16.15;8.50;;;3.40;99.90;;;;;;5015557;28;20412;-94
2022/03/20 02:11:25;;;;;;;17.38;8.43;;;3.30;99.90;;;;;;5015252;28;20061;-93
2022/03/20 02:13:52;;;;;;;14.13;7.95;;;3.20;99.90;;;;;;5014567;28;20057;-95
2022/03/20 02:16:18;;;;;;;17.40;8.50;;;3.20;99.90;;;;;;5015432;28;20481;-95
2022/03/20 02:18:45;;;;;;;17.98;8.35;;;3.20;99.90;;;;;;5015766;28;20037;-96
2022/03/20 02:21:10;;;;;;;20.25;8.70;;;3.20;99.90;;;;;;5015255;28;20047;-95
2022/03/20 02:23:36;;;;;;;17.48;8.50;;;3.20;99.90;;;;;;4999428;28;20132;-95
2022/03/20 02:26:03;;;;;;;18.00;8.93;;;3.20;99.90;;;;;;5015247;28;20405;-94
2022/03/20 02:28:29;;;;;;;21.00;9.55;;;3.10;99.90;;;;;;5015454;28;20149;-95
2022/03/20 02:30:55;;;;;;;15.50;8.80;;;3.10;99.90;;;;;;4998925;28;20103;-96
2022/03/20 02:33:27;;;;;;;16.58;8.65;;;3.10;99.90;;;;;;4999085;28;20045;-96
2022/03/20 02:35:53;;;;;;;18.40;9.07;;;3.10;99.90;;;;;;5000758;28;20109;-96
2022/03/20 02:38:20;;;;;;;17.35;8.63;;;3.00;99.90;;;;;;5026438;28;20136;-96
2022/03/20 02:40:46;;;;;;;17.60;9.10;;;3.00;99.90;;;;;;5012319;28;20068;-96
2022/03/20 02:43:12;;;;;;;21.10;9.93;;;3.00;99.90;;;;;;5032187;28;20053;-96
2022/03/20 02:45:38;;;;;;;17.40;8.70;;;3.00;99.90;;;;;;5009627;28;20076;-96
2022/03/20 02:48:08;;;;;;;22.90;9.63;;;3.00;99.90;;;;;;5031187;28;20045;-95
2022/03/20 02:50:36;;;;;;;24.48;10.27;;;3.00;99.90;;;;;;5013212;28;20104;-96
2022/03/20 02:53:05;;;;;;;15.57;9.82;;;3.90;99.90;;;;;;5018258;28;20493;-96
2022/03/20 02:55:35;;;;;;;17.25;10.50;;;2.90;99.90;;;;;;5010493;28;20049;-95
2022/03/20 02:58:02;;;;;;;19.52;11.02;;;2.90;99.90;;;;;;5040411;28;20050;-96
2022/03/20 03:00:31;;;;;;;20.60;10.73;;;3.00;99.90;;;;;;5027038;28;20056;-96
2022/03/20 03:02:59;;;;;;;17.90;10.77;;;3.00;99.90;;;;;;5033847;28;20046;-96
2022/03/20 03:05:27;;;;;;;19.00;10.88;;;3.00;99.90;;;;;;5026382;28;20049;-96
2022/03/20 03:10:57;;;;;;;22.25;11.23;;;3.00;99.90;;;;;;5033062;28;20072;-95
2022/03/20 03:13:27;;;;;;;19.60;11.05;;;3.00;99.90;;;;;;5016507;28;20049;-96
2022/03/20 03:15:54;;;;;;;22.92;12.40;;;3.00;99.90;;;;;;5015071;28;20848;-96
2022/03/20 03:18:22;;;;;;;20.90;11.95;;;3.00;99.90;;;;;;5014006;28;20049;-96
2022/03/20 03:20:48;;;;;;;17.98;11.07;;;3.00;99.90;;;;;;5026963;28;20060;-94
2022/03/20 03:23:14;;;;;;;22.10;11.77;;;3.00;99.90;;;;;;5029962;28;20045;-94
2022/03/20 03:25:41;;;;;;;20.83;11.93;;;3.00;99.90;;;;;;5025388;28;20056;-93
2022/03/20 03:28:10;;;;;;;19.40;11.63;;;2.90;99.90;;;;;;5013746;28;20050;-94
2022/03/20 03:30:37;;;;;;;20.60;11.80;;;2.90;99.90;;;;;;5008096;28;20481;-94
2022/03/20 03:33:03;;;;;;;21.40;11.35;;;2.90;99.90;;;;;;5031368;28;20140;-96
2022/03/20 03:35:41;;;;;;;20.77;12.57;;;2.90;99.90;;;;;;5024829;28;20055;-96
2022/03/20 03:38:11;;;;;;;23.23;12.73;;;2.90;99.90;;;;;;5013941;28;20431;-96
2022/03/20 03:40:37;;;;;;;23.77;12.65;;;2.80;99.90;;;;;;5026495;28;20041;-96
2022/03/20 03:43:04;;;;;;;20.15;11.52;;;2.80;99.90;;;;;;5033559;28;20136;-96
2022/03/20 03:45:30;;;;;;;17.75;11.50;;;2.80;99.90;;;;;;5025694;28;20041;-96
2022/03/20 03:47:55;;;;;;;20.92;12.52;;;2.80;99.90;;;;;;5015040;28;20072;-96
2022/03/20 03:50:22;;;;;;;24.13;12.45;;;2.70;99.90;;;;;;5035382;28;20040;-96
2022/03/20 03:52:48;;;;;;;23.55;12.15;;;2.70;99.90;;;;;;5027241;28;20091;-94
2022/03/20 03:55:15;;;;;;;23.38;12.73;;;2.70;99.90;;;;;;5029592;28;20045;-95
2022/03/20 03:57:45;;;;;;;21.92;12.93;;;2.70;99.90;;;;;;5008109;28;20045;-95
2022/03/20 04:00:13;;;;;;;22.27;12.07;;;2.60;99.90;;;;;;5032300;28;20397;-96
2022/03/20 04:02:38;;;;;;;18.90;11.93;;;2.60;99.90;;;;;;5027835;28;20085;-96
2022/03/20 04:05:05;;;;;;;21.35;12.65;;;2.50;99.90;;;;;;5031933;28;20427;-96
2022/03/20 04:07:31;;;;;;;22.55;12.90;;;2.50;99.90;;;;;;5027447;28;20049;-96
2022/03/20 04:09:57;;;;;;;23.02;13.43;;;2.50;99.90;;;;;;5017053;28;20056;-96
2022/03/20 04:12:22;;;;;;;19.98;12.25;;;2.50;99.90;;;;;;5020462;28;20038;-96
2022/03/20 04:14:48;;;;;;;27.83;13.35;;;2.40;99.90;;;;;;5035870;28;20052;-96
2022/03/20 04:17:14;;;;;;;22.05;12.77;;;2.40;99.90;;;;;;5035096;28;20041;-96
2022/03/20 04:19:41;;;;;;;20.05;13.13;;;2.40;99.90;;;;;;5026983;28;20046;-94
2022/03/20 04:22:07;;;;;;;21.60;13.48;;;2.40;99.90;;;;;;5033959;28;20049;-96
2022/03/20 04:24:36;;;;;;;24.35;13.07;;;2.40;99.90;;;;;;5009797;28;20044;-96
2022/03/20 04:27:02;;;;;;;22.10;13.23;;;2.30;99.90;;;;;;5019322;28;20101;-96
2022/03/20 04:29:27;;;;;;;22.20;12.57;;;2.30;99.90;;;;;;5029779;28;20378;-96
2022/03/20 04:31:54;;;;;;;21.05;12.55;;;2.30;99.90;;;;;;5035063;28;20930;-96
2022/03/20 04:34:21;;;;;;;24.35;14.02;;;2.30;99.90;;;;;;5034659;28;20049;-96
2022/03/20 04:36:48;;;;;;;21.60;13.75;;;2.30;99.90;;;;;;5035171;28;20076;-96
2022/03/20 04:39:14;;;;;;;23.15;13.35;;;2.30;99.90;;;;;;5042141;28;20100;-96
2022/03/20 04:41:41;;;;;;;24.73;14.13;;;2.30;99.90;;;;;;5023512;28;20042;-96
2022/03/20 04:44:07;;;;;;;20.55;13.40;;;2.20;99.90;;;;;;5025665;28;20478;-96
2022/03/20 04:46:33;;;;;;;23.63;14.25;;;2.20;99.90;;;;;;5024606;28;20049;-96
2022/03/20 04:59:55;;;;;;;24.30;14.30;;;2.10;99.90;;;;;;5042482;28;20076;-95
2022/03/20 05:02:21;;;;;;;26.15;14.35;;;2.10;99.90;;;;;;5022852;28;20037;-95
2022/03/20 05:04:46;;;;;;;24.42;13.90;;;2.10;99.90;;;;;;5021466;28;20103;-95
2022/03/20 05:07:12;;;;;;;27.95;15.13;;;2.00;99.90;;;;;;5027232;28;20063;-95
2022/03/20 05:15:09;;;;;;;24.85;14.48;;;2.00;99.90;;;;;;5040269;28;20067;-93
2022/03/20 05:17:36;;;;;;;27.73;15.27;;;2.00;99.90;;;;;;5034900;28;20049;-92
2022/03/20 05:20:03;;;;;;;22.80;14.52;;;2.00;99.90;;;;;;5022423;28;20065;-96
2022/03/20 05:22:30;;;;;;;27.52;15.00;;;2.00;99.90;;;;;;5034401;28;20558;-96
2022/03/20 05:24:56;;;;;;;25.83;14.75;;;2.00;99.90;;;;;;5023887;28;20068;-96
2022/03/20 05:27:22;;;;;;;22.40;13.77;;;2.00;99.90;;;;;;5024001;28;20479;-96
2022/03/20 05:29:48;;;;;;;24.90;14.73;;;2.70;99.90;;;;;;5012567;28;20050;-96
2022/03/20 05:32:14;;;;;;;26.88;15.82;;;2.40;99.90;;;;;;5011482;28;20137;-96
2022/03/20 05:34:40;;;;;;;22.83;15.05;;;2.90;99.90;;;;;;5035349;23;20061;-96
2022/03/20 05:37:07;;;;;;;22.15;15.13;;;2.50;99.90;;;;;;5027377;28;20057;-96
2022/03/20 05:39:33;;;;;;;30.35;16.75;;;1.80;99.90;;;;;;5027582;28;20085;-96
2022/03/20 05:41:59;;;;;;;28.75;15.43;;;1.90;99.90;;;;;;5031338;28;20066;-96
2022/03/20 05:44:26;;;;;;;24.90;16.83;;;1.80;99.90;;;;;;5029740;28;20079;-96
2022/03/20 05:46:54;;;;;;;26.10;16.90;;;2.10;99.90;;;;;;5015293;28;20050;-96
2022/03/20 05:49:31;;;;;;;24.40;16.33;;;2.80;99.90;;;;;;5010949;28;20084;-96
2022/03/20 05:51:57;;;;;;;27.35;16.25;;;2.80;99.90;;;;;;5014397;28;20317;-96
2022/03/20 05:54:23;;;;;;;25.80;15.43;;;1.80;99.90;;;;;;5027029;28;20103;-95
2022/03/20 05:59:36;;;;;;;29.90;17.73;;;1.80;99.90;;;;;;5023976;28;20085;-96
2022/03/20 06:02:04;;;;;;;24.42;16.60;;;2.00;99.90;;;;;;5009070;28;20033;-96
2022/03/20 06:04:33;;;;;;;26.90;16.17;;;1.90;99.90;;;;;;5025061;28;20041;-96
2022/03/20 06:06:59;;;;;;;26.00;15.93;;;1.90;99.90;;;;;;5027932;28;20057;-96
2022/03/20 06:09:25;;;;;;;29.17;16.38;;;2.50;99.90;;;;;;5009793;28;20049;-95
2022/03/20 06:11:51;;;;;;;28.90;18.13;;;1.90;99.90;;;;;;5005981;28;20049;-96
2022/03/20 06:14:17;;;;;;;26.35;15.93;;;2.00;99.90;;;;;;5001304;28;20072;-95
2022/03/20 06:16:44;;;;;;;27.38;16.90;;;2.10;99.90;;;;;;4998247;28;20080;-96
2022/03/20 06:19:36;;;;;;;27.65;17.55;;;2.20;99.90;;;;;;5000924;28;20076;-94
2022/03/20 06:22:21;;;;;;;27.02;16.70;;;2.00;99.90;;;;;;5026787;28;20045;-93
2022/03/20 06:24:47;;;;;;;26.10;16.23;;;2.00;99.90;;;;;;5009710;28;20136;-95
2022/03/20 06:27:25;;;;;;;27.65;16.65;;;2.60;99.90;;;;;;5008025;28;20091;-96
2022/03/20 06:30:00;;;;;;;27.33;16.05;;;2.10;99.90;;;;;;5012684;28;20112;-96
2022/03/20 06:32:52;;;;;;;28.10;17.63;;;2.40;99.90;;;;;;5036762;28;20037;-96
2022/03/20 06:35:34;;;;;;;25.65;16.52;;;2.20;99.90;;;;;;5012221;28;20199;-96
2022/03/20 06:38:12;;;;;;;28.77;17.08;;;2.20;99.90;;;;;;4974724;28;20056;-96
2022/03/20 06:40:39;;;;;;;29.33;17.83;;;2.20;99.90;;;;;;4993967;28;20046;-96
2022/03/20 06:43:22;;;;;;;24.58;16.60;;;2.30;99.90;;;;;;5007538;28;20054;-96
2022/03/20 06:46:00;;;;;;;27.25;17.90;;;2.80;99.90;;;;;;5014040;28;20137;-96
2022/03/20 06:48:26;;;;;;;26.23;16.52;;;2.40;99.90;;;;;;4986110;28;20053;-96
2022/03/20 06:50:51;;;;;;;26.48;16.85;;;2.70;99.90;;;;;;4978880;28;20050;-95
2022/03/20 06:53:18;;;;;;;23.13;16.33;;;2.40;99.90;;;;;;4978044;28;20041;-95
2022/03/20 06:55:45;;;;;;;27.30;17.40;;;2.40;99.90;;;;;;4962454;28;20422;-96
2022/03/20 06:58:14;;;;;;;25.58;17.15;;;2.50;99.90;;;;;;4963002;28;20042;-97
2022/03/20 07:00:40;;;;;;;27.23;16.33;;;2.30;99.90;;;;;;4964838;28;20106;-96
2022/03/20 07:03:08;;;;;;;27.73;17.70;;;3.60;99.90;;;;;;4964332;28;20042;-96
2022/03/20 07:05:35;;;;;;;29.40;16.88;;;3.60;99.90;;;;;;4963199;28;20042;-96
2022/03/20 07:08:22;;;;;;;28.55;18.17;;;3.20;99.90;;;;;;4970984;28;20074;-96
2022/03/20 07:11:01;;;;;;;25.88;15.80;;;2.70;99.90;;;;;;4981038;28;20054;-96
2022/03/20 07:14:00;;;;;;;24.65;16.88;;;3.20;99.90;;;;;;5007141;28;20061;-96
2022/03/20 07:16:30;;;;;;;28.30;16.75;;;2.80;99.90;;;;;;4968715;28;20102;-96
2022/03/20 07:19:04;;;;;;;28.00;16.77;;;3.70;99.90;;;;;;4986316;28;20050;-96
2022/03/20 07:21:44;;;;;;;27.77;17.80;;;4.10;99.90;;;;;;4969162;28;20089;-96
2022/03/20 07:24:13;;;;;;;26.83;16.10;;;4.20;99.90;;;;;;4967907;28;20081;-96
2022/03/20 07:29:49;;;;;;;25.40;17.17;;;3.00;99.90;;;;;;5005646;28;20073;-96
2022/03/20 07:32:22;;;;;;;26.02;16.42;;;3.00;99.90;;;;;;4990507;28;20069;-96
2022/03/20 07:34:50;;;;;;;22.63;16.50;;;3.10;99.90;;;;;;4998881;28;20046;-96
2022/03/20 07:37:24;;;;;;;29.17;18.17;;;3.00;99.90;;;;;;4995625;28;20142;-96
2022/03/20 07:40:16;;;;;;;25.45;16.67;;;3.10;99.90;;;;;;4989348;28;20088;-96
2022/03/20 07:42:43;;;;;;;25.58;17.05;;;3.20;99.90;;;;;;4961363;28;20079;-96
2022/03/20 07:45:27;;;;;;;25.35;15.60;;;3.70;99.90;;;;;;4986143;28;20111;-96
2022/03/20 07:47:52;;;;;;;28.52;17.27;;;3.30;99.90;;;;;;4980847;28;20100;-96
2022/03/20 07:50:18;;;;;;;22.83;15.82;;;3.40;99.90;;;;;;4980909;28;20452;-95
2022/03/20 07:52:50;;;;;;;29.90;17.23;;;3.40;99.90;;;;;;4980064;28;20053;-96
2022/03/20 07:55:27;;;;;;;27.33;16.67;;;3.50;99.90;;;;;;4982426;28;20045;-96
2022/03/20 07:57:53;;;;;;;25.23;15.98;;;3.80;99.90;;;;;;4973469;28;20042;-96
2022/03/20 08:00:20;;;;;;;27.60;16.17;;;3.60;99.90;;;;;;4983709;28;20042;-96
2022/03/20 08:03:02;;;;;;;;;;;;;;;;;;;;;
2022/03/20 08:05:28;;;;;;;28.65;16.38;;;3.80;99.90;;;;;;5011295;28;20049;-96
2022/03/20 08:07:53;;;;;;;28.25;17.17;;;3.90;99.90;;;;;;5003890;28;20117;-96
2022/03/20 08:10:31;;;;;;;27.15;16.30;;;3.90;99.90;;;;;;4979429;28;20065;-91
2022/03/20 08:12:57;;;;;;;29.30;17.08;;;3.70;99.90;;;;;;4969343;28;20043;-95
2022/03/20 08:15:24;;;;;;;29.88;16.23;;;5.30;99.90;;;;;;4962481;28;20284;-93
2022/03/20 08:17:59;;;;;;;25.17;16.52;;;5.20;99.90;;;;;;4981937;28;20508;-95
2022/03/20 08:20:25;;;;;;;26.90;17.30;;;4.40;99.90;;;;;;4985189;28;20050;-94
2022/03/20 08:23:02;;;;;;;22.13;16.17;;;4.30;99.90;;;;;;4987478;28;20199;-94
2022/03/20 08:25:28;;;;;;;25.98;17.13;;;4.30;99.90;;;;;;4997469;28;20058;-95
2022/03/20 08:27:53;;;;;;;31.80;17.30;;;4.60;99.90;;;;;;4982628;28;20042;-92
2022/03/20 08:30:22;;;;;;;24.48;16.55;;;4.50;99.90;;;;;;4980859;28;20961;-93
2022/03/20 08:32:52;;;;;;;26.75;16.08;;;4.60;99.90;;;;;;4997004;28;20129;-91
2022/03/20 08:35:19;;;;;;;29.17;16.42;;;4.70;99.90;;;;;;4980303;28;20512;-93
2022/03/20 08:37:45;;;;;;;26.50;17.98;;;4.80;99.90;;;;;;4980147;28;20060;-91
2022/03/20 08:40:15;;;;;;;22.80;16.23;;;5.50;99.90;;;;;;4980423;28;20038;-93
2022/03/20 08:42:44;;;;;;;23.42;16.10;;;4.90;99.90;;;;;;4981259;28;20050;-93
2022/03/20 08:45:13;;;;;;;25.63;16.70;;;6.00;99.90;;;;;;4980899;28;20073;-91
2022/03/20 08:47:47;;;;;;;26.40;18.20;;;5.60;99.90;;;;;;4979934;28;20046;-90
2022/03/20 08:50:19;;;;;;;27.65;16.02;;;5.10;99.90;;;;;;4980245;28;20053;-93
2022/03/20 08:52:46;;;;;;;27.45;17.65;;;6.00;99.90;;;;;;4969130;28;20046;-92
2022/03/20 08:55:13;;;;;;;33.00;17.95;;;6.70;99.90;;;;;;4980572;28;20042;-92
2022/03/20 08:57:43;;;;;;;32.45;17.95;;;5.30;99.90;;;;;;4980512;28;20041;-95
2022/03/20 09:00:25;;;;;;;30.30;17.50;;;6.40;99.90;;;;;;4983750;28;20507;-96
2022/03/20 09:02:57;;;;;;;29.20;17.80;;;6.60;99.90;;;;;;4983820;28;20034;-96
2022/03/20 09:05:23;;;;;;;26.13;17.08;;;5.60;99.90;;;;;;4986327;28;20046;-96
2022/03/20 09:08:01;;;;;;;35.25;19.30;;;6.70;99.90;;;;;;4982880;28;20067;-96
2022/03/20 09:10:27;;;;;;;31.67;18.60;;;6.70;99.90;;;;;;4962980;28;20133;-94
2022/03/20 09:13:00;;;;;;;29.98;18.15;;;6.50;99.90;;;;;;4975070;28;20088;-91
2022/03/20 09:15:28;;;;;;;27.20;18.50;;;5.80;99.90;;;;;;4982832;28;20054;-89
2022/03/20 09:20:47;;;;;;;31.23;18.10;;;5.90;99.90;;;;;;4980671;28;20383;-96
2022/03/20 09:23:16;;;;;;;32.10;18.42;;;6.00;99.90;;;;;;4977954;28;20056;-96
2022/03/20 09:25:42;;;;;;;26.42;17.80;;;6.60;99.90;;;;;;4984977;28;20088;-96
2022/03/20 09:28:11;;;;;;;25.83;17.58;;;6.30;99.90;;;;;;4987800;28;20034;-96
2022/03/20 09:30:49;;;;;;;32.95;18.85;;;6.10;99.90;;;;;;4989300;28;20042;-94
2022/03/20 09:33:15;;;;;;;31.77;18.42;;;6.20;99.90;;;;;;4982636;28;20374;-96
2022/03/20 09:36:08;;;;;;;33.58;19.85;;;6.30;99.90;;;;;;4981218;28;20077;-96
2022/03/20 09:38:39;;;;;;;33.33;19.70;;;6.30;99.90;;;;;;4980331;28;20144;-94
2022/03/20 09:41:22;;;;;;;30.58;18.20;;;6.40;99.90;;;;;;4980260;28;20100;-93
2022/03/20 09:44:04;;;;;;;32.65;19.35;;;6.50;99.90;;;;;;4985867;28;20042;-93
2022/03/20 09:46:31;;;;;;;28.85;19.10;;;7.30;99.90;;;;;;4973724;28;20501;-94
2022/03/20 09:49:02;;;;;;;26.90;18.10;;;7.70;99.90;;;;;;4980811;28;20441;-91
2022/03/20 09:51:32;;;;;;;25.73;18.23;;;8.10;99.90;;;;;;4980398;28;20101;-93
2022/03/20 09:53:58;;;;;;;29.25;19.30;;;7.00;99.90;;;;;;4963250;28;20085;-93
2022/03/20 09:56:23;;;;;;;34.05;19.95;;;7.10;99.90;;;;;;4962018;28;20046;-94
2022/03/20 09:58:49;;;;;;;28.73;18.83;;;8.10;99.90;;;;;;4980645;28;20048;-94
2022/03/20 10:01:16;;;;;;;27.52;18.10;;;7.20;99.90;;;;;;4979504;28;20430;-95
2022/03/20 10:03:42;;;;;;;27.38;18.25;;;8.40;99.90;;;;;;4977325;28;20056;-95
2022/03/20 10:06:20;;;;;;;28.77;18.52;;;8.20;99.90;;;;;;4979573;28;20041;-94
2022/03/20 10:08:59;;;;;;;28.38;18.63;;;7.40;99.90;;;;;;4974506;28;20045;-94
2022/03/20 10:11:29;;;;;;;31.20;19.33;;;7.70;99.90;;;;;;4981456;28;20052;-93
2022/03/20 10:14:05;;;;;;;28.05;19.33;;;7.60;99.90;;;;;;4981118;28;20045;-92
2022/03/20 10:16:41;;;;;;;29.02;19.35;;;8.70;99.90;;;;;;4979971;28;20482;-94
2022/03/20 10:19:22;;;;;;;31.85;19.70;;;7.80;99.90;;;;;;4980614;28;20453;-95
2022/03/20 10:22:07;;;;;;;30.80;19.05;;;7.80;99.90;;;;;;4974539;28;20038;-96
2022/03/20 10:24:50;;;;;;;29.98;19.50;;;7.90;99.90;;;;;;4975478;28;20072;-96
2022/03/20 10:27:16;;;;;;;28.70;20.58;;;7.90;99.90;;;;;;4979406;28;20038;-90
2022/03/20 10:30:07;;;;;;;29.75;19.00;;;8.00;99.90;;;;;;4971584;28;20054;-92
2022/03/20 10:32:33;;;;;;;30.85;19.70;;;8.10;99.90;;;;;;4976840;28;20049;-91
2022/03/20 10:35:11;;;;;;;37.28;20.17;;;8.20;99.90;;;;;;4972602;28;20052;-91
2022/03/20 10:37:47;;;;;;;27.73;19.65;;;8.30;99.90;;;;;;4974243;28;20114;-89
2022/03/20 10:40:17;;;;;;;28.77;19.63;;;8.90;99.90;;;;;;4962281;28;20189;-90
2022/03/20 10:43:06;;;;;;;29.15;20.50;;;8.40;99.90;;;;;;4977938;28;20045;-91
2022/03/20 10:45:48;;;;;;;31.67;19.77;;;8.50;99.90;;;;;;4971457;28;20104;-92
2022/03/20 10:48:28;;;;;;;32.67;20.55;;;8.60;99.90;;;;;;4976551;28;20046;-91
2022/03/20 10:50:55;;;;;;;36.53;21.10;;;8.60;99.90;;;;;;4971737;28;20041;-90
2022/03/20 10:53:21;;;;;;;27.25;19.02;;;8.60;99.90;;;;;;4977228;28;20042;-90
2022/03/20 10:55:46;;;;;;;28.52;19.52;;;8.90;99.90;;;;;;4980215;28;20177;-89
2022/03/20 10:58:23;;;;;;;30.73;19.85;;;8.70;99.90;;;;;;4978028;28;20132;-92
2022/03/20 11:00:49;;;;;;;31.33;19.52;;;8.70;99.90;;;;;;4959647;28;20077;-88
2022/03/20 11:03:19;;;;;;;30.40;20.02;;;8.80;99.90;;;;;;4975553;28;20042;-90
2022/03/20 11:05:46;;;;;;;35.10;20.50;;;8.90;99.90;;;;;;4987644;28;20054;-87
2022/03/20 11:08:12;;;;;;;28.65;19.80;;;9.00;99.90;;;;;;4967432;28;20038;-90
2022/03/20 11:10:43;;;;;;;30.20;19.55;;;9.30;99.90;;;;;;4978596;28;20088;-88
2022/03/20 11:13:09;;;;;;;31.50;20.27;;;9.00;99.90;;;;;;4977707;28;20486;-93
2022/03/20 11:15:37;;;;;;;34.95;19.88;;;9.70;99.90;;;;;;4978857;28;20362;-92
2022/03/20 11:18:05;;;;;;;32.22;21.17;;;9.10;99.90;;;;;;4994031;28;20045;-90
2022/03/20 11:20:32;;;;;;;34.75;20.35;;;9.20;99.90;;;;;;4978249;28;20056;-90
2022/03/20 11:23:02;;;;;;;28.30;20.05;;;9.20;99.90;;;;;;4972545;28;20038;-88
2022/03/20 11:25:30;;;;;;;35.30;20.13;;;9.60;99.90;;;;;;4975782;28;20068;-91
2022/03/20 11:28:01;;;;;;;32.28;20.65;;;10.00;99.90;;;;;;4977993;28;20052;-91
2022/03/20 11:30:31;;;;;;;29.88;20.45;;;9.50;99.80;;;;;;4978206;28;20104;-91
2022/03/20 11:33:00;;;;;;;32.30;20.08;;;9.60;99.90;;;;;;4975611;28;20048;-90
2022/03/20 11:38:24;;;;;;;29.05;20.23;;;9.70;99.90;;;;;;4972121;28;20081;-90
2022/03/20 11:41:07;;;;;;;31.05;19.73;;;9.70;99.40;;;;;;4958761;28;20132;-89
2022/03/20 11:43:38;;;;;;;35.75;19.80;;;9.80;97.70;;;;;;4949942;28;20055;-91
2022/03/20 11:46:25;;;;;;;34.75;19.70;;;9.90;98.70;;;;;;4958453;28;20050;-91
2022/03/20 11:49:13;;;;;;;30.90;19.55;;;10.00;98.20;;;;;;4947535;28;20512;-91
2022/03/20 11:52:06;;;;;;;31.83;20.48;;;10.10;96.60;;;;;;4957992;28;20093;-89
2022/03/20 11:54:39;;;;;;;36.42;20.67;;;10.10;97.10;;;;;;4932456;28;20510;-90
2022/03/20 11:57:24;;;;;;;28.67;19.33;;;10.10;96.30;;;;;;4942883;28;20053;-91
2022/03/20 11:59:51;;;;;;;33.72;19.77;;;9.90;93.50;;;;;;4958669;28;20054;-91
2022/03/20 12:02:18;;;;;;;38.17;21.00;;;10.20;94.10;;;;;;4957601;28;20039;-93
2022/03/20 12:05:02;;;;;;;31.45;20.10;;;9.80;94.20;;;;;;4974653;28;20058;-92
2022/03/20 12:07:40;;;;;;;29.65;19.48;;;10.00;94.90;;;;;;4950317;28;20123;-92
2022/03/20 12:10:22;;;;;;;28.45;19.73;;;10.20;95.70;;;;;;4958823;28;20054;-92
2022/03/20 12:13:00;;;;;;;29.05;19.95;;;10.30;93.40;;;;;;4958788;28;20474;-91
2022/03/20 12:15:29;;;;;;;31.52;19.17;;;10.40;93.70;;;;;;4958656;28;20046;-91
2022/03/20 12:18:04;;;;;;;31.25;20.40;;;10.80;95.10;;;;;;4958537;28;20057;-90
2022/03/20 12:20:48;;;;;;;30.13;19.38;;;10.60;95.50;;;;;;4959020;28;20050;-90
2022/03/20 12:23:32;;;;;;;30.13;20.05;;;10.80;95.40;;;;;;4958416;28;20387;-89
2022/03/20 12:25:58;;;;;;;29.05;19.95;;;10.90;93.70;;;;;;4958658;28;20042;-90
2022/03/20 12:28:28;;;;;;;32.63;19.77;;;10.90;94.10;;;;;;4958007;28;20053;-91
2022/03/20 12:30:54;;;;;;;30.27;19.58;;;10.80;93.60;;;;;;4958611;28;20081;-92
2022/03/20 12:33:24;;;;;;;30.75;19.70;;;10.70;93.60;;;;;;4957676;28;20133;-90
2022/03/20 12:35:51;;;;;;;29.30;19.25;;;10.70;92.00;;;;;;4973954;28;20136;-91
2022/03/20 12:38:40;;;;;;;30.80;20.50;;;10.70;92.30;;;;;;4963887;28;20058;-92
2022/03/20 12:41:09;;;;;;;32.03;20.42;;;11.00;90.50;;;;;;4959273;28;20367;-91
2022/03/20 12:43:35;;;;;;;33.33;20.75;;;11.20;93.90;;;;;;4969598;28;20076;-91
2022/03/20 12:46:01;;;;;;;31.30;19.88;;;11.30;93.60;;;;;;4977135;28;20042;-91
2022/03/20 12:48:31;;;;;;;29.67;19.98;;;11.50;93.40;;;;;;4977704;28;20041;-91
2022/03/20 12:51:03;;;;;;;28.33;19.77;;;11.60;91.90;;;;;;4963605;28;20547;-92
2022/03/20 12:53:39;;;;;;;29.00;20.92;;;11.70;90.90;;;;;;4967760;28;20042;-93
2022/03/20 12:56:23;;;;;;;30.65;20.05;;;11.80;89.90;;;;;;4970703;28;20600;-91
2022/03/20 12:58:49;;;;;;;29.00;18.85;;;11.90;89.40;;;;;;4976758;28;20049;-92
2022/03/20 13:01:15;;;;;;;130.82;25.23;;;11.90;87.00;;;;;;4980503;28;20108;-93
2022/03/20 13:03:42;;;;;;;31.55;19.13;;;11.90;86.80;;;;;;4981452;28;20049;-93
2022/03/20 13:06:08;;;;;;;29.80;19.63;;;11.90;85.90;;;;;;4970253;28;20096;-94
2022/03/20 13:08:38;;;;;;;28.23;19.27;;;11.80;84.40;;;;;;4997523;28;20156;-91
2022/03/20 13:11:48;;;;;;;26.45;19.10;;;11.80;82.80;;;;;;4991000;28;20050;-91
2022/03/20 13:14:01;;;;;;;27.90;19.08;;;11.80;81.90;;;;;;4996459;28;20050;-91
2022/03/20 13:16:28;;;;;;;30.98;19.50;;;11.70;82.10;;;;;;4980494;28;20136;-92
2022/03/20 13:18:54;;;;;;;27.27;19.80;;;11.70;83.80;;;;;;4980306;28;20050;-91
2022/03/20 13:21:20;;;;;;;28.13;18.27;;;11.60;84.00;;;;;;4980524;28;20059;-91
2022/03/20 13:23:46;;;;;;;28.50;18.90;;;11.50;83.10;;;;;;4980339;28;20042;-91
2022/03/20 13:26:18;;;;;;;32.63;23.42;;;11.40;83.80;;;;;;4980420;28;20077;-93